Time;durP1;ratioP1;P1;durP2;ratioP2;P2;SDS_P1;SDS_P2;PMS_P1;PMS_P2;Temp;Humidity;BMP_temperature;BMP_pressure;BME280_temperature;BME280_humidity;BME280_pressure;Samples;Min_cycle;Max_cycle;Signal;HPM_P1;HPM_P2
2021/10/22 00:01:14;;;;;;;1.67;1.58;;;4.30;99.90;;;;;;485692;244;27510;-75
2021/10/22 00:03:15;;;;;;;1.67;1.58;;;4.20;99.90;;;;;;485746;244;27891;-75
2021/10/22 00:05:17;;;;;;;1.60;1.50;;;4.20;99.90;;;;;;485709;244;27557;-75
2021/10/22 00:07:18;;;;;;;1.70;1.60;;;4.20;99.90;;;;;;485729;244;27520;-76
2021/10/22 00:09:19;;;;;;;1.70;1.60;;;4.30;99.90;;;;;;485715;245;27966;-75
2021/10/22 00:11:20;;;;;;;1.50;1.50;;;4.20;99.90;;;;;;485691;244;28090;-75
2021/10/22 00:13:22;;;;;;;1.60;1.50;;;4.10;99.90;;;;;;485742;244;28071;-75
2021/10/22 00:15:23;;;;;;;1.40;1.40;;;4.10;99.90;;;;;;485727;245;28004;-77
2021/10/22 00:17:24;;;;;;;1.70;1.60;;;4.00;99.90;;;;;;485733;244;27500;-76
2021/10/22 00:19:25;;;;;;;1.50;1.50;;;3.90;99.90;;;;;;485717;245;27524;-75
2021/10/22 00:21:27;;;;;;;1.40;1.40;;;3.90;99.90;;;;;;485707;244;27510;-75
2021/10/22 00:23:28;;;;;;;1.20;1.20;;;3.90;99.90;;;;;;485729;244;27507;-76
2021/10/22 00:25:29;;;;;;;1.50;1.50;;;3.90;99.90;;;;;;486248;242;27588;-75
2021/10/22 00:27:30;;;;;;;1.30;1.30;;;3.90;99.90;;;;;;493103;240;27425;-76
2021/10/22 00:29:32;;;;;;;1.40;1.40;;;4.00;99.90;;;;;;493152;241;27372;-76
2021/10/22 00:31:33;;;;;;;1.40;1.40;;;3.90;99.90;;;;;;493158;241;27382;-75
2021/10/22 00:33:34;;;;;;;1.27;1.27;;;3.80;99.90;;;;;;492731;240;27408;-75
2021/10/22 00:35:35;;;;;;;1.33;1.33;;;3.90;99.90;;;;;;493159;241;27814;-75
2021/10/22 00:37:37;;;;;;;1.50;1.50;;;3.90;99.90;;;;;;493150;241;27909;-75
2021/10/22 00:39:38;;;;;;;1.37;1.37;;;3.80;99.90;;;;;;493168;241;28736;-75
2021/10/22 00:41:39;;;;;;;1.73;1.62;;;3.80;99.90;;;;;;493147;241;27949;-77
2021/10/22 00:43:40;;;;;;;1.45;1.35;;;3.80;99.90;;;;;;493176;241;27417;-76
2021/10/22 00:45:42;;;;;;;1.73;1.67;;;3.80;99.90;;;;;;493163;241;27367;-75
2021/10/22 00:47:43;;;;;;;1.62;1.55;;;3.80;99.90;;;;;;493158;241;27484;-76
2021/10/22 00:49:47;;;;;;;1.50;1.50;;;3.80;99.90;;;;;;493137;241;27505;-75
2021/10/22 00:51:45;;;;;;;1.30;1.30;;;3.90;99.90;;;;;;493013;241;27464;-75
2021/10/22 00:53:47;;;;;;;1.75;1.65;;;3.80;99.90;;;;;;493152;241;27425;-75
2021/10/22 00:55:48;;;;;;;1.60;1.60;;;3.90;99.90;;;;;;493166;241;27488;-75
2021/10/22 00:57:49;;;;;;;1.60;1.50;;;3.80;99.90;;;;;;493166;241;27407;-76
2021/10/22 00:59:50;;;;;;;1.85;1.75;;;3.80;99.90;;;;;;493166;241;27418;-75
2021/10/22 01:01:52;;;;;;;1.67;1.62;;;3.60;99.90;;;;;;493178;241;27467;-76
2021/10/22 01:03:53;;;;;;;1.95;1.85;;;3.60;99.90;;;;;;493185;241;28030;-76
2021/10/22 01:05:54;;;;;;;1.80;1.70;;;3.60;99.90;;;;;;493185;241;27924;-76
2021/10/22 01:07:55;;;;;;;1.33;1.33;;;3.60;99.90;;;;;;493161;241;27887;-76
2021/10/22 01:09:57;;;;;;;1.62;1.62;;;3.60;99.90;;;;;;493176;241;28990;-75
2021/10/22 01:11:58;;;;;;;1.80;1.70;;;3.60;99.90;;;;;;493196;241;27389;-76
2021/10/22 01:13:59;;;;;;;1.77;1.67;;;3.50;99.90;;;;;;493170;241;27409;-76
2021/10/22 01:16:01;;;;;;;1.80;1.70;;;3.50;99.90;;;;;;493150;241;27383;-76
2021/10/22 01:18:02;;;;;;;1.60;1.40;;;3.50;99.90;;;;;;493165;241;27402;-76
2021/10/22 01:20:03;;;;;;;1.62;1.52;;;3.50;99.90;;;;;;493180;241;27480;-76
2021/10/22 01:22:04;;;;;;;2.33;1.58;;;3.50;99.90;;;;;;492974;241;27473;-76
2021/10/22 01:24:05;;;;;;;1.40;1.40;;;3.50;99.90;;;;;;493157;241;27433;-77
2021/10/22 01:26:07;;;;;;;1.67;1.58;;;3.40;99.90;;;;;;493165;241;27574;-76
2021/10/22 01:28:08;;;;;;;1.30;1.30;;;3.40;99.90;;;;;;493099;241;27374;-75
2021/10/22 01:30:09;;;;;;;1.90;1.80;;;3.40;99.90;;;;;;493153;241;27417;-76
2021/10/22 01:32:10;;;;;;;1.50;1.50;;;3.40;99.90;;;;;;493158;241;28009;-76
2021/10/22 01:34:12;;;;;;;2.00;1.90;;;3.40;99.90;;;;;;493160;241;27913;-76
2021/10/22 01:36:13;;;;;;;2.53;1.80;;;3.30;99.90;;;;;;493142;241;28615;-76
2021/10/22 01:38:15;;;;;;;2.30;2.20;;;3.30;99.90;;;;;;493152;241;27917;-75
2021/10/22 01:40:15;;;;;;;1.87;1.75;;;3.20;99.90;;;;;;493145;241;27413;-75
2021/10/22 01:42:17;;;;;;;1.45;1.40;;;3.20;99.90;;;;;;493127;241;27496;-76
2021/10/22 01:44:23;;;;;;;1.98;1.87;;;3.20;99.90;;;;;;493155;241;27424;-76
2021/10/22 01:46:19;;;;;;;1.90;1.80;;;3.10;99.90;;;;;;492777;241;27513;-76
2021/10/22 01:48:20;;;;;;;1.98;1.87;;;3.10;99.90;;;;;;493157;241;27473;-75
2021/10/22 01:50:22;;;;;;;2.10;2.00;;;3.10;99.90;;;;;;493157;241;27515;-75
2021/10/22 01:52:23;;;;;;;1.80;1.70;;;3.10;99.90;;;;;;493182;241;27382;-76
2021/10/22 01:54:24;;;;;;;1.90;1.80;;;3.10;99.90;;;;;;493146;241;27409;-75
2021/10/22 01:56:25;;;;;;;1.90;1.80;;;3.00;99.90;;;;;;493173;241;27448;-77
2021/10/22 01:58:27;;;;;;;2.15;2.05;;;3.10;99.90;;;;;;493152;241;27807;-76
2021/10/22 02:00:28;;;;;;;2.05;1.85;;;3.00;99.90;;;;;;493153;241;27599;-76
2021/10/22 02:02:29;;;;;;;1.83;1.73;;;3.00;99.90;;;;;;493148;241;27871;-76
2021/10/22 02:04:31;;;;;;;2.17;1.77;;;3.00;99.90;;;;;;493156;241;28026;-75
2021/10/22 02:06:32;;;;;;;1.85;1.75;;;3.00;99.90;;;;;;493007;241;28991;-75
2021/10/22 02:08:33;;;;;;;2.20;2.10;;;3.00;99.90;;;;;;493139;241;27531;-75
2021/10/22 02:10:34;;;;;;;1.90;1.80;;;2.90;99.90;;;;;;493162;241;27484;-75
2021/10/22 02:12:36;;;;;;;1.95;1.85;;;2.90;99.90;;;;;;493158;241;27371;-75
2021/10/22 02:14:37;;;;;;;1.83;1.73;;;2.90;99.90;;;;;;493152;241;27474;-75
2021/10/22 02:16:38;;;;;;;1.92;1.83;;;2.80;99.90;;;;;;493182;241;27410;-75
2021/10/22 02:18:39;;;;;;;1.70;1.58;;;2.80;99.90;;;;;;493170;241;27463;-75
2021/10/22 02:20:40;;;;;;;1.60;1.60;;;2.80;99.90;;;;;;493139;241;27425;-75
2021/10/22 02:22:42;;;;;;;1.37;1.37;;;2.50;99.90;;;;;;493106;241;27466;-74
2021/10/22 02:24:43;;;;;;;1.48;1.48;;;2.60;99.90;;;;;;493153;241;27366;-75
2021/10/22 02:26:44;;;;;;;1.40;1.40;;;2.70;99.90;;;;;;493156;241;27500;-75
2021/10/22 02:28:45;;;;;;;1.83;1.73;;;2.60;99.90;;;;;;493146;241;27840;-75
2021/10/22 02:30:47;;;;;;;1.77;1.70;;;2.50;99.90;;;;;;493101;241;27989;-75
2021/10/22 02:32:48;;;;;;;1.80;1.70;;;2.60;99.90;;;;;;493155;241;29798;-75
2021/10/22 02:34:49;;;;;;;1.70;1.60;;;2.60;99.90;;;;;;492999;241;27934;-75
2021/10/22 02:36:50;;;;;;;1.60;1.50;;;2.70;99.90;;;;;;493128;241;27496;-76
2021/10/22 02:38:52;;;;;;;1.90;1.80;;;2.70;99.90;;;;;;493095;241;27362;-76
2021/10/22 02:40:53;;;;;;;2.05;1.95;;;2.80;99.90;;;;;;493138;241;27512;-75
2021/10/22 02:42:54;;;;;;;1.30;1.30;;;2.80;99.90;;;;;;493094;241;27436;-76
2021/10/22 02:44:55;;;;;;;1.80;1.70;;;2.70;99.90;;;;;;493122;241;27433;-75
2021/10/22 02:46:57;;;;;;;1.85;1.75;;;2.70;99.90;;;;;;493109;241;27457;-76
2021/10/22 02:48:58;;;;;;;1.60;1.50;;;2.70;99.90;;;;;;493112;241;27461;-76
2021/10/22 02:50:59;;;;;;;1.75;1.65;;;2.70;99.90;;;;;;493106;241;27521;-74
2021/10/22 02:53:01;;;;;;;1.80;1.70;;;2.60;99.90;;;;;;493145;241;27539;-76
2021/10/22 02:55:02;;;;;;;2.08;1.98;;;2.40;99.90;;;;;;493126;241;27369;-76
2021/10/22 02:57:03;;;;;;;2.15;2.05;;;2.30;99.90;;;;;;493096;241;27977;-75
2021/10/22 02:59:04;;;;;;;1.70;1.60;;;2.30;99.90;;;;;;493117;236;27928;-76
2021/10/22 03:01:05;;;;;;;1.73;1.62;;;2.40;99.90;;;;;;493116;241;27897;-75
2021/10/22 03:03:07;;;;;;;1.73;1.62;;;2.40;99.90;;;;;;493112;241;27909;-76
2021/10/22 03:05:08;;;;;;;1.70;1.70;;;2.50;99.90;;;;;;493047;241;27500;-76
2021/10/22 03:07:10;;;;;;;1.55;1.55;;;2.50;99.90;;;;;;493089;241;27401;-76
2021/10/22 03:09:10;;;;;;;1.70;1.70;;;2.50;99.90;;;;;;493119;241;27433;-76
2021/10/22 03:11:12;;;;;;;2.03;1.87;;;2.50;99.90;;;;;;493128;241;27389;-76
2021/10/22 03:13:13;;;;;;;1.50;1.50;;;2.50;99.90;;;;;;493176;241;27370;-76
2021/10/22 03:15:15;;;;;;;1.60;1.50;;;2.50;99.90;;;;;;493114;241;27524;-76
2021/10/22 03:17:15;;;;;;;1.70;1.60;;;2.40;99.90;;;;;;493134;241;27712;-76
2021/10/22 03:19:17;;;;;;;1.80;1.70;;;2.40;99.90;;;;;;493152;241;27469;-76
2021/10/22 03:21:19;;;;;;;2.25;2.15;;;2.40;99.90;;;;;;493164;241;27458;-76
2021/10/22 03:23:19;;;;;;;1.80;1.70;;;2.40;99.90;;;;;;493126;241;27572;-75
2021/10/22 03:25:20;;;;;;;1.85;1.75;;;2.30;99.90;;;;;;493164;241;27802;-76
2021/10/22 03:27:23;;;;;;;1.98;1.87;;;2.30;99.90;;;;;;493147;237;28013;-76
2021/10/22 03:29:23;;;;;;;1.70;1.70;;;2.30;99.90;;;;;;493082;241;27954;-76
2021/10/22 03:31:25;;;;;;;1.65;1.65;;;2.30;99.90;;;;;;493144;241;27390;-76
2021/10/22 03:33:25;;;;;;;2.25;1.60;;;2.20;99.90;;;;;;492470;241;27381;-76
2021/10/22 03:35:27;;;;;;;1.80;1.70;;;2.30;99.90;;;;;;493123;241;27401;-76
2021/10/22 03:37:28;;;;;;;2.08;1.98;;;2.20;99.90;;;;;;493095;241;27405;-76
2021/10/22 03:39:29;;;;;;;2.10;2.00;;;2.30;99.90;;;;;;493122;241;27488;-76
2021/10/22 03:41:30;;;;;;;2.47;2.28;;;2.20;99.90;;;;;;493132;241;27366;-76
2021/10/22 03:43:33;;;;;;;2.33;2.12;;;2.20;99.90;;;;;;493128;241;27500;-76
2021/10/22 03:45:33;;;;;;;2.58;2.15;;;2.30;99.90;;;;;;493071;241;27532;-76
2021/10/22 03:47:34;;;;;;;2.00;1.90;;;2.40;99.90;;;;;;493141;241;27409;-76
2021/10/22 03:49:35;;;;;;;2.78;2.10;;;2.30;99.90;;;;;;493133;241;27536;-76
2021/10/22 03:51:37;;;;;;;2.28;2.17;;;2.40;99.90;;;;;;493147;241;27390;-76
2021/10/22 03:53:38;;;;;;;2.35;2.15;;;2.50;99.90;;;;;;493132;241;28020;-75
2021/10/22 03:55:39;;;;;;;2.45;2.30;;;2.70;99.90;;;;;;493142;241;27933;-77
2021/10/22 03:57:40;;;;;;;3.00;2.30;;;2.70;99.90;;;;;;493140;236;27851;-77
2021/10/22 03:59:42;;;;;;;2.75;2.55;;;2.80;99.90;;;;;;493163;241;27505;-75
2021/10/22 04:01:43;;;;;;;3.75;2.97;;;2.80;99.90;;;;;;493136;241;27364;-77
2021/10/22 04:03:44;;;;;;;3.92;2.42;;;2.90;99.90;;;;;;493105;241;27517;-76
2021/10/22 04:05:45;;;;;;;2.70;2.50;;;2.90;99.90;;;;;;493146;241;27390;-76
2021/10/22 04:07:47;;;;;;;2.85;2.65;;;3.00;99.90;;;;;;493154;241;27380;-76
2021/10/22 04:09:48;;;;;;;2.70;2.50;;;3.00;99.90;;;;;;493153;241;27489;-76
2021/10/22 04:11:49;;;;;;;2.80;2.60;;;3.00;99.90;;;;;;493138;241;27385;-77
2021/10/22 04:13:50;;;;;;;2.97;2.55;;;3.10;99.90;;;;;;493136;241;27421;-75
2021/10/22 04:15:52;;;;;;;2.80;2.60;;;3.00;99.90;;;;;;493135;241;27452;-77
2021/10/22 04:17:53;;;;;;;2.80;2.60;;;3.10;99.90;;;;;;493196;241;27478;-76
2021/10/22 04:19:54;;;;;;;3.00;2.80;;;3.10;99.90;;;;;;493176;241;27413;-76
2021/10/22 04:21:55;;;;;;;2.80;2.60;;;3.10;99.90;;;;;;493186;241;27917;-77
2021/10/22 04:23:57;;;;;;;3.25;2.95;;;3.10;99.90;;;;;;493203;241;28420;-76
2021/10/22 04:25:58;;;;;;;3.15;2.85;;;3.20;99.90;;;;;;493199;241;27985;-76
2021/10/22 04:27:59;;;;;;;3.65;3.35;;;3.20;99.90;;;;;;493126;241;29124;-76
2021/10/22 04:30:00;;;;;;;3.10;2.80;;;3.10;99.90;;;;;;493183;241;27440;-77
2021/10/22 04:32:02;;;;;;;2.70;2.50;;;3.20;99.90;;;;;;493159;241;27575;-76
2021/10/22 04:34:03;;;;;;;3.00;2.80;;;3.20;99.90;;;;;;493069;241;27406;-77
2021/10/22 04:36:07;;;;;;;2.85;2.65;;;3.20;99.90;;;;;;493146;241;27414;-77
2021/10/22 04:40:32;;;;;;;2.80;2.60;;;3.30;99.90;;;;;;493150;241;27999;-77
2021/10/22 04:42:32;;;;;;;3.33;3.03;;;3.30;99.90;;;;;;493150;241;27430;-76
2021/10/22 04:44:34;;;;;;;3.20;2.90;;;3.40;99.90;;;;;;493154;241;27474;-76
2021/10/22 04:46:35;;;;;;;3.25;3.03;;;3.40;99.90;;;;;;493128;241;27882;-77
2021/10/22 04:48:36;;;;;;;3.12;2.87;;;3.40;99.90;;;;;;493119;241;27921;-76
2021/10/22 04:50:44;;;;;;;3.30;3.00;;;3.40;99.90;;;;;;493069;241;27899;-76
2021/10/22 04:52:39;;;;;;;3.47;3.17;;;3.40;99.90;;;;;;492693;241;27540;-76
2021/10/22 04:54:40;;;;;;;3.45;2.97;;;3.50;99.90;;;;;;493130;241;27362;-76
2021/10/22 04:56:41;;;;;;;4.05;3.62;;;3.50;99.90;;;;;;493095;236;27409;-76
2021/10/22 04:58:45;;;;;;;3.65;3.30;;;3.60;99.90;;;;;;493092;241;27485;-76
2021/10/22 05:00:44;;;;;;;3.58;3.28;;;3.60;99.90;;;;;;492926;241;27390;-76
2021/10/22 05:02:45;;;;;;;3.33;3.03;;;3.60;99.90;;;;;;493065;241;27495;-75
2021/10/22 05:04:46;;;;;;;2.97;2.75;;;3.60;99.90;;;;;;493077;241;27458;-76
2021/10/22 05:06:48;;;;;;;2.97;2.78;;;3.60;99.90;;;;;;493104;241;27445;-76
2021/10/22 05:08:49;;;;;;;3.58;3.22;;;3.70;99.90;;;;;;493145;241;27444;-76
2021/10/22 05:10:50;;;;;;;3.70;3.40;;;3.70;99.90;;;;;;493121;241;27362;-75
2021/10/22 05:12:51;;;;;;;3.70;3.30;;;3.70;99.90;;;;;;493113;241;27410;-76
2021/10/22 05:14:52;;;;;;;3.85;3.55;;;3.80;99.90;;;;;;493095;241;27962;-74
2021/10/22 05:16:54;;;;;;;4.05;3.65;;;3.80;99.90;;;;;;493104;241;28119;-76
2021/10/22 05:18:56;;;;;;;4.22;3.85;;;3.90;99.90;;;;;;493105;241;28004;-76
2021/10/22 05:20:56;;;;;;;3.62;3.33;;;3.90;99.90;;;;;;493098;241;27392;-75
2021/10/22 05:22:57;;;;;;;3.53;3.22;;;3.90;99.90;;;;;;493110;241;27505;-75
2021/10/22 05:24:59;;;;;;;4.12;3.40;;;3.90;99.90;;;;;;493062;241;27457;-75
2021/10/22 05:27:00;;;;;;;4.20;3.90;;;4.00;99.90;;;;;;493020;241;27405;-75
2021/10/22 05:29:01;;;;;;;3.40;3.10;;;4.00;99.90;;;;;;493025;241;27406;-75
2021/10/22 05:31:02;;;;;;;4.28;3.80;;;4.00;99.90;;;;;;493116;241;27441;-74
2021/10/22 05:33:04;;;;;;;6.10;3.65;;;4.00;99.90;;;;;;493145;241;27406;-75
2021/10/22 05:35:05;;;;;;;4.35;3.83;;;4.00;99.90;;;;;;493113;241;27366;-75
2021/10/22 05:37:06;;;;;;;3.35;3.03;;;4.00;99.90;;;;;;493109;241;27509;-75
2021/10/22 05:39:07;;;;;;;4.93;3.70;;;4.10;99.90;;;;;;493141;241;27521;-74
2021/10/22 05:41:09;;;;;;;5.00;4.18;;;4.10;99.90;;;;;;493126;241;27837;-75
2021/10/22 05:43:10;;;;;;;4.25;3.85;;;4.20;99.90;;;;;;493103;241;27890;-75
2021/10/22 05:45:11;;;;;;;4.10;3.72;;;4.20;99.90;;;;;;493125;241;27821;-74
2021/10/22 05:47:13;;;;;;;4.60;3.78;;;4.20;99.90;;;;;;493125;241;27979;-75
2021/10/22 05:49:14;;;;;;;4.50;4.10;;;4.30;99.90;;;;;;493130;241;27490;-75
2021/10/22 05:51:15;;;;;;;4.75;3.85;;;4.30;99.90;;;;;;493104;241;27374;-75
2021/10/22 05:53:16;;;;;;;5.60;4.00;;;4.30;99.90;;;;;;493084;241;27409;-75
2021/10/22 05:55:18;;;;;;;6.43;4.03;;;4.30;99.90;;;;;;493102;241;27531;-75
2021/10/22 05:57:19;;;;;;;6.72;4.18;;;4.30;99.90;;;;;;493111;241;27476;-75
2021/10/22 05:59:20;;;;;;;6.55;3.95;;;4.30;99.90;;;;;;493113;241;27411;-74
2021/10/22 06:01:21;;;;;;;4.82;4.10;;;4.30;99.90;;;;;;493088;241;27449;-74
2021/10/22 06:03:23;;;;;;;5.30;3.80;;;4.30;99.90;;;;;;493076;241;27440;-75
2021/10/22 06:05:24;;;;;;;4.60;3.80;;;4.30;99.90;;;;;;493086;241;27363;-74
2021/10/22 06:07:25;;;;;;;5.25;4.05;;;4.40;99.90;;;;;;493097;241;27823;-74
2021/10/22 06:09:26;;;;;;;4.30;3.55;;;4.30;99.90;;;;;;493110;241;27910;-74
2021/10/22 06:11:28;;;;;;;3.90;3.60;;;4.30;99.90;;;;;;493112;241;27889;-74
2021/10/22 06:13:29;;;;;;;5.15;4.12;;;4.30;99.90;;;;;;493090;236;28004;-75
2021/10/22 06:15:30;;;;;;;5.28;3.53;;;4.30;99.90;;;;;;493098;241;27485;-75
2021/10/22 06:17:31;;;;;;;8.32;4.00;;;4.30;99.90;;;;;;493125;241;27378;-74
2021/10/22 06:19:36;;;;;;;6.53;4.30;;;4.30;99.90;;;;;;493090;241;27414;-75
2021/10/22 06:21:49;;;;;;;8.73;4.62;;;4.30;99.90;;;;;;492775;241;27541;-74
2021/10/22 06:25:55;;;;;;;7.12;5.05;;;4.30;99.90;;;;;;493024;241;27524;-74
2021/10/22 06:27:56;;;;;;;7.65;5.97;;;4.30;99.90;;;;;;493087;241;27456;-74
2021/10/22 06:29:57;;;;;;;7.85;6.20;;;4.30;99.90;;;;;;493044;241;27488;-74
2021/10/22 06:31:58;;;;;;;12.60;7.03;;;4.20;99.90;;;;;;493105;241;27525;-74
2021/10/22 06:34:00;;;;;;;9.07;8.23;;;4.20;99.90;;;;;;493116;241;27382;-74
2021/10/22 06:36:01;;;;;;;9.57;8.20;;;4.20;99.90;;;;;;493094;241;27905;-75
2021/10/22 06:38:02;;;;;;;8.05;7.00;;;4.30;99.90;;;;;;493095;241;27912;-75
2021/10/22 06:40:03;;;;;;;8.50;7.37;;;4.30;99.90;;;;;;493087;241;27895;-75
2021/10/22 06:42:05;;;;;;;9.55;7.03;;;4.30;99.90;;;;;;493102;241;27557;-74
2021/10/22 06:44:06;;;;;;;9.80;6.90;;;4.40;99.90;;;;;;493078;241;27378;-74
2021/10/22 06:46:07;;;;;;;9.63;7.70;;;4.40;99.90;;;;;;493099;241;27405;-75
2021/10/22 06:48:08;;;;;;;10.70;8.40;;;4.50;99.90;;;;;;493108;236;27488;-75
2021/10/22 06:50:10;;;;;;;8.20;7.40;;;4.50;99.90;;;;;;493113;241;27523;-74
2021/10/22 06:52:11;;;;;;;8.43;7.65;;;4.50;99.90;;;;;;493129;241;27489;-74
2021/10/22 06:54:12;;;;;;;8.30;7.60;;;4.50;99.90;;;;;;493143;241;27374;-75
2021/10/22 06:56:14;;;;;;;8.23;7.30;;;4.50;99.90;;;;;;493104;241;27405;-75
2021/10/22 06:58:15;;;;;;;8.35;7.07;;;4.50;99.90;;;;;;493108;241;27449;-75
2021/10/22 07:00:16;;;;;;;12.65;7.28;;;4.50;99.90;;;;;;493112;241;27877;-75
2021/10/22 07:02:17;;;;;;;8.20;6.70;;;4.50;99.90;;;;;;493149;241;27981;-75
2021/10/22 07:04:18;;;;;;;7.22;6.35;;;4.60;99.90;;;;;;493117;241;27907;-75
2021/10/22 07:08:39;;;;;;;9.25;8.40;;;4.60;99.90;;;;;;493113;241;27557;-74
2021/10/22 07:10:41;;;;;;;11.98;7.32;;;4.70;99.90;;;;;;493146;241;27368;-75
2021/10/22 07:12:42;;;;;;;11.68;7.32;;;4.70;99.90;;;;;;493112;241;27437;-74
2021/10/22 07:14:53;;;;;;;11.85;7.12;;;4.70;99.90;;;;;;493092;241;28704;-75
2021/10/22 07:16:50;;;;;;;9.15;6.20;;;4.70;99.90;;;;;;492855;241;27915;-75
2021/10/22 07:18:52;;;;;;;8.23;6.57;;;4.70;99.90;;;;;;493079;241;27900;-74
2021/10/22 07:20:54;;;;;;;6.20;5.43;;;4.80;99.90;;;;;;493127;241;27479;-75
2021/10/22 07:23:01;;;;;;;9.20;5.93;;;4.70;99.90;;;;;;492984;241;27414;-74
2021/10/22 07:24:55;;;;;;;8.43;6.37;;;4.70;99.90;;;;;;492516;241;27404;-76
2021/10/22 07:26:57;;;;;;;10.65;6.10;;;4.80;99.90;;;;;;493111;241;27370;-75
2021/10/22 07:28:58;;;;;;;9.52;5.80;;;4.90;99.90;;;;;;493136;241;27882;-74
2021/10/22 07:31:00;;;;;;;12.15;6.30;;;4.90;99.90;;;;;;493120;241;27448;-75
2021/10/22 07:33:00;;;;;;;8.00;5.37;;;5.00;99.90;;;;;;493133;241;27482;-75
2021/10/22 07:35:02;;;;;;;11.10;6.25;;;5.10;99.90;;;;;;493180;241;27989;-74
2021/10/22 07:37:03;;;;;;;6.62;5.25;;;5.10;99.90;;;;;;493129;236;27936;-75
2021/10/22 07:39:04;;;;;;;8.77;6.20;;;5.20;99.90;;;;;;493171;241;27501;-76
2021/10/22 07:41:05;;;;;;;8.82;5.65;;;5.20;99.90;;;;;;493143;241;27440;-76
2021/10/22 07:43:07;;;;;;;7.95;5.87;;;5.10;99.90;;;;;;493090;241;27505;-76
2021/10/22 07:45:09;;;;;;;14.32;7.18;;;5.00;99.90;;;;;;493154;241;27864;-76
2021/10/22 07:47:09;;;;;;;9.93;6.37;;;5.00;99.90;;;;;;493106;241;27464;-75
2021/10/22 07:49:10;;;;;;;10.65;6.95;;;5.00;99.90;;;;;;493137;241;27610;-75
2021/10/22 07:51:12;;;;;;;8.90;6.28;;;5.00;99.90;;;;;;493151;241;27827;-75
2021/10/22 07:53:13;;;;;;;11.75;6.72;;;5.10;99.90;;;;;;493151;241;27846;-75
2021/10/22 07:55:14;;;;;;;10.20;6.28;;;5.20;99.90;;;;;;493184;241;27459;-75
2021/10/22 07:57:15;;;;;;;8.60;6.03;;;5.30;99.90;;;;;;493132;241;27373;-75
2021/10/22 07:59:17;;;;;;;11.98;6.00;;;5.30;99.90;;;;;;493119;241;27484;-74
2021/10/22 08:01:18;;;;;;;9.32;6.85;;;5.30;99.90;;;;;;493101;241;27425;-75
2021/10/22 08:03:19;;;;;;;10.48;8.80;;;5.30;99.90;;;;;;493133;241;27382;-75
2021/10/22 08:05:21;;;;;;;11.10;8.27;;;5.40;99.90;;;;;;493136;241;27425;-75
2021/10/22 08:07:23;;;;;;;10.35;7.95;;;5.30;99.90;;;;;;493158;241;27935;-74
2021/10/22 08:09:23;;;;;;;8.75;7.75;;;5.30;99.90;;;;;;493051;241;27893;-74
2021/10/22 08:11:24;;;;;;;8.60;6.65;;;5.30;99.90;;;;;;493157;241;27408;-75
2021/10/22 08:13:25;;;;;;;9.35;7.40;;;5.30;99.90;;;;;;493119;241;27429;-74
2021/10/22 08:15:27;;;;;;;10.32;8.23;;;5.20;99.90;;;;;;493127;241;27533;-75
2021/10/22 08:17:28;;;;;;;12.93;9.43;;;5.30;99.90;;;;;;493144;241;27825;-77
2021/10/22 08:19:29;;;;;;;10.27;8.07;;;5.30;99.90;;;;;;493108;241;27421;-77
2021/10/22 08:23:35;;;;;;;13.77;8.43;;;5.30;99.90;;;;;;493110;241;27893;-74
2021/10/22 08:25:36;;;;;;;10.48;7.50;;;5.30;99.90;;;;;;493140;241;27497;-77
2021/10/22 08:27:38;;;;;;;10.05;7.43;;;5.20;99.90;;;;;;493108;241;27523;-74
2021/10/22 08:29:38;;;;;;;12.63;7.50;;;5.30;99.90;;;;;;493144;241;27504;-77
2021/10/22 08:31:40;;;;;;;11.82;7.62;;;5.30;99.90;;;;;;493190;241;27457;-77
2021/10/22 08:33:41;;;;;;;14.20;6.90;;;5.30;99.90;;;;;;493116;241;27486;-77
2021/10/22 08:35:42;;;;;;;14.98;7.97;;;5.30;99.90;;;;;;493141;241;27851;-75
2021/10/22 08:37:44;;;;;;;14.02;7.65;;;5.40;99.90;;;;;;493155;241;27894;-74
2021/10/22 08:39:46;;;;;;;17.10;7.82;;;5.50;99.90;;;;;;493130;241;27526;-74
2021/10/22 08:41:46;;;;;;;15.40;7.60;;;5.70;99.90;;;;;;493074;241;27358;-75
2021/10/22 08:43:47;;;;;;;10.43;7.10;;;5.80;99.90;;;;;;493106;241;27425;-77
2021/10/22 08:45:49;;;;;;;14.60;7.85;;;5.90;99.90;;;;;;493156;241;27429;-77
2021/10/22 08:47:50;;;;;;;12.37;8.07;;;6.00;99.90;;;;;;493047;240;27897;-77
2021/10/22 08:49:51;;;;;;;11.55;7.45;;;6.00;99.90;;;;;;493156;241;27921;-73
2021/10/22 08:51:56;;;;;;;13.50;6.60;;;6.10;99.90;;;;;;493119;241;27373;-71
2021/10/22 08:53:54;;;;;;;14.48;7.97;;;6.10;99.90;;;;;;492657;241;27513;-71
2021/10/22 08:55:55;;;;;;;13.00;8.23;;;6.10;99.90;;;;;;493503;239;27540;-70
2021/10/22 08:57:56;;;;;;;15.23;9.55;;;6.20;99.90;;;;;;497315;238;27456;-70
2021/10/22 08:59:59;;;;;;;13.63;9.10;;;6.10;99.90;;;;;;497337;238;27413;-75
2021/10/22 09:02:02;;;;;;;27.90;13.18;;;6.10;99.90;;;;;;497221;239;29301;-73
2021/10/22 09:04:00;;;;;;;24.55;13.75;;;6.10;99.90;;;;;;497121;239;27938;-73
2021/10/22 09:06:01;;;;;;;26.90;14.70;;;6.20;99.90;;;;;;497329;238;27425;-74
2021/10/22 09:08:05;;;;;;;28.77;14.80;;;6.10;99.90;;;;;;497317;238;27426;-73
2021/10/22 09:10:04;;;;;;;23.48;12.52;;;6.10;99.90;;;;;;497094;239;27457;-73
2021/10/22 09:12:05;;;;;;;17.10;9.60;;;5.90;99.90;;;;;;497277;239;27827;-72
2021/10/22 09:14:09;;;;;;;12.82;7.25;;;5.90;99.90;;;;;;497307;238;27921;-73
2021/10/22 09:16:07;;;;;;;12.02;7.22;;;5.80;99.90;;;;;;497202;239;27505;-74
2021/10/22 09:18:09;;;;;;;13.57;7.75;;;5.90;99.90;;;;;;497283;239;27481;-70
2021/10/22 09:20:12;;;;;;;11.20;6.87;;;5.90;99.90;;;;;;497313;239;27508;-70
2021/10/22 09:22:11;;;;;;;9.40;5.65;;;5.80;99.90;;;;;;496255;238;27351;-73
2021/10/22 09:24:13;;;;;;;13.77;6.50;;;5.80;99.90;;;;;;482447;241;27904;-74
2021/10/22 09:26:21;;;;;;;11.10;5.40;;;5.80;99.90;;;;;;482430;244;29234;-75
2021/10/22 09:28:18;;;;;;;9.13;6.10;;;5.80;99.90;;;;;;482318;245;27430;-74
2021/10/22 09:30:19;;;;;;;12.02;7.80;;;5.80;99.90;;;;;;482489;245;27443;-74
2021/10/22 09:32:20;;;;;;;9.48;8.02;;;5.90;99.90;;;;;;482509;244;27532;-73
2021/10/22 09:34:22;;;;;;;13.60;9.52;;;5.90;99.90;;;;;;482464;244;27981;-74
2021/10/22 09:36:23;;;;;;;10.98;9.80;;;5.90;99.90;;;;;;482480;244;27830;-73
2021/10/22 09:38:24;;;;;;;12.05;8.93;;;5.90;99.90;;;;;;482428;244;27426;-74
2021/10/22 09:40:25;;;;;;;9.13;6.75;;;5.90;99.90;;;;;;482438;244;27399;-72
2021/10/22 09:42:28;;;;;;;11.10;7.00;;;5.90;99.90;;;;;;482485;244;27519;-73
2021/10/22 09:44:28;;;;;;;11.07;6.28;;;5.90;99.90;;;;;;482428;244;27774;-74
2021/10/22 09:46:29;;;;;;;11.90;5.35;;;5.80;99.90;;;;;;482445;244;27537;-73
2021/10/22 09:48:31;;;;;;;11.80;8.48;;;6.00;99.90;;;;;;482486;244;28018;-72
2021/10/22 09:50:32;;;;;;;20.05;16.15;;;5.90;99.90;;;;;;482454;244;27398;-72
2021/10/22 09:52:33;;;;;;;14.70;12.65;;;6.00;99.90;;;;;;482490;244;27414;-73
2021/10/22 09:54:35;;;;;;;12.10;10.40;;;6.00;99.90;;;;;;482505;244;27449;-73
2021/10/22 09:56:36;;;;;;;16.75;14.00;;;6.00;99.90;;;;;;482416;244;27439;-72
2021/10/22 09:58:37;;;;;;;16.02;12.52;;;6.10;99.90;;;;;;482474;244;28003;-73
2021/10/22 10:00:38;;;;;;;12.82;11.07;;;6.10;99.90;;;;;;482480;244;28579;-72
2021/10/22 10:02:39;;;;;;;15.32;11.85;;;6.20;99.90;;;;;;482460;244;27422;-73
2021/10/22 10:04:41;;;;;;;13.57;12.18;;;6.30;99.90;;;;;;482510;244;27521;-73
2021/10/22 10:06:45;;;;;;;11.80;9.02;;;6.30;99.90;;;;;;482467;244;27407;-73
2021/10/22 10:08:43;;;;;;;10.23;9.10;;;6.30;99.90;;;;;;482327;244;27981;-72
2021/10/22 10:10:44;;;;;;;9.90;6.35;;;6.30;99.90;;;;;;482474;244;27916;-74
2021/10/22 10:12:46;;;;;;;9.27;7.25;;;6.30;99.90;;;;;;482488;244;27443;-73
2021/10/22 10:14:47;;;;;;;10.32;6.78;;;6.50;99.90;;;;;;482461;244;27436;-73
2021/10/22 10:16:48;;;;;;;10.38;6.60;;;6.60;99.90;;;;;;482460;244;27394;-72
2021/10/22 10:18:50;;;;;;;9.60;6.00;;;6.70;99.90;;;;;;482460;244;27446;-72
2021/10/22 10:20:51;;;;;;;6.00;4.65;;;6.80;99.90;;;;;;482472;244;27914;-74
2021/10/22 10:22:52;;;;;;;14.13;5.00;;;6.80;99.90;;;;;;482500;244;28004;-72
2021/10/22 10:24:53;;;;;;;9.75;5.18;;;6.80;99.90;;;;;;482440;244;27442;-73
2021/10/22 10:26:54;;;;;;;9.48;4.95;;;6.80;99.90;;;;;;482465;244;27390;-72
2021/10/22 10:28:56;;;;;;;9.23;4.25;;;7.00;99.90;;;;;;482481;244;27423;-72
2021/10/22 10:30:57;;;;;;;8.55;4.53;;;7.00;99.90;;;;;;482406;244;27450;-74
2021/10/22 10:32:58;;;;;;;5.63;4.00;;;7.00;99.90;;;;;;482470;245;27565;-73
2021/10/22 10:34:59;;;;;;;10.33;4.10;;;7.00;99.90;;;;;;482470;245;28491;-73
2021/10/22 10:37:02;;;;;;;6.55;3.90;;;7.10;99.90;;;;;;482434;244;29953;-72
2021/10/22 10:39:02;;;;;;;10.13;5.05;;;7.20;99.90;;;;;;482419;246;27410;-74
2021/10/22 10:41:03;;;;;;;6.32;3.55;;;7.10;99.90;;;;;;482461;245;27558;-74
2021/10/22 10:43:04;;;;;;;8.80;3.15;;;7.00;99.90;;;;;;482501;244;27383;-72
2021/10/22 10:45:06;;;;;;;6.20;3.50;;;7.10;99.90;;;;;;482496;244;27512;-73
2021/10/22 10:47:07;;;;;;;6.53;3.60;;;7.00;99.90;;;;;;482406;244;28927;-74